Racecast

Brandon Mick

Revolution Express Track (CA) · - · STS · Compare head to head

Athlete rating 103.5 2015 TF season
Best race 106.3 TF
Races 35
Seasons 2 2014 — 2015

RankedNation #15713·CA #939·Team #10 ?

Rating scale ?
Speed rating — all races

Track & Field

TF speed rating

2015 TF 100.4

Revolution Express Track (CA) · Grade -

Date Meet Event Result Place Rating Difficulty PR/SR Flags
2015-05-31 PAC (Pacific Association Youth Champions 1500m 6:04.43 22nd · 4th on team 104.0 -0.024 ★PR SR
2015-05-31 PAC (Pacific Association Youth Champions 3000m 13:23.1 8th · 1st on team 101.4 -0.024
2015-05-09 Stockton Saints Track Club javelin 15.10m -0.022
2015-05-09 Stockton Saints Track Club 400m 1:23.89 13th · 1st on team -0.022 SR
2015-05-09 Stockton Saints Track Club 3000m 13:03.03 1st · 1st on team 103.9 -0.022
2015-04-25 Revolution Express Track Club javelin 8.38m -0.024
2015-04-25 Revolution Express Track Club 3000m 12:43.8 12th · 1st on team 106.3 -0.024 ★PR ★R SR RSR
2015-04-25 Revolution Express Track Club 800m 3:03.19 6th · 1st on team 99.9 -0.024 ★PR SR
2015-04-18 Shor/Sheppard Invitational javelin 8.98m -0.022
2015-04-18 Shor/Sheppard Invitational 800m 3:14.55 20th · 3rd on team 94.4 -0.022
2015-04-18 Shor/Sheppard Invitational 3000m 13:25.46 10th · 2nd on team 101.4 -0.022 PR SR
2015-04-04 Sacramento Speed Factory javelin 10.53m -0.033
2015-04-04 Sacramento Speed Factory 3000m 13:30.14 6th · 2nd on team 99.8 -0.033 PR SR
2015-04-04 Sacramento Speed Factory 800m 3:10.15 21st · 3rd on team 95.6 -0.033
2015-03-21 RPM Legacy javelin 42-11 -0.020
2015-03-21 RPM Legacy 1500m 6:13.78 17th · 3rd on team 101.9 -0.020 R SR RSR
2015-03-07 RETC/CVRR/SSF/Mt House Practice meet 1500m 6:25.66 3rd · 2nd on team 98.0 -0.024 R SR RSR
2015-03-07 RETC/CVRR/SSF/Mt House Practice meet 800m 3:06.65 2nd · 2nd on team 97.7 -0.024 SR

2014 TF 82.1

Revolution Express Track (CA) · Grade -

Date Meet Event Result Place Rating Difficulty PR/SR Flags
2014-06-20 USATF Pacific Assoc. Junior Olympics (Top 8) 1500m 6:32.92 21st · 2nd on team 80.9 -0.031
2014-06-20 USATF Pacific Assoc. Junior Olympics (Top 8) 800m 3:13.13 27th · 2nd on team 78.3 -0.031
2014-05-31 Pacific Association Championships (PAC) 1500m 6:08.83 12th · 3rd on team 87.0 -0.024 PR R SR RSR
2014-05-31 Pacific Association Championships (PAC) 200m 38.87 43rd · 2nd on team -0.024
2014-05-24 Central Valley Roadrunners 800m 3:06.59 13th · 2nd on team 81.6 -0.026 PR SR
2014-05-24 Central Valley Roadrunners 200m 36.48 35th · 1st on team -0.026 ★PR SR
2014-05-24 Central Valley Roadrunners 400m 1:24.98 18th · 1st on team -0.026
2014-05-10 Hampton Phillips Classic TC sectional 400m 1:24.92 12th · 1st on team -0.033
2014-04-26 Revolution Express TC 1500m 6:20.89 9th · 2nd on team 83.6 -0.024
2014-04-26 Revolution Express TC 800m 3:07.09 8th · 1st on team 81.2 -0.024 PR SR
2014-04-05 Sacramento Speed Showcase 1500m 6:32.76 10th · 2nd on team 80.8 -0.033
2014-04-05 Sacramento Speed Showcase 200m 39.33 37th · 1st on team -0.033
2014-04-05 Sacramento Speed Showcase 800m 3:10.43 15th · 3rd on team 79.3 -0.033 PR SR
2014-03-22 RPM 1500m 6:15.8 4th · 1st on team 86.1 -0.012 PR R SR RSR
2014-03-22 RPM 400m 1:27.69 34th · 1st on team -0.012
2014-03-01 RETC Practice Meet 400m 1:22.7 7th · 2nd on team -0.024 ★PR SR
2014-03-01 RETC Practice Meet 200m 38.4 7th · 2nd on team -0.024 PR SR